sensor_id;sensor_type;location;lat;lon;timestamp;pressure;altitude;pressure_sealevel;temperature;humidity
62072;BME280;48031;48.542;13.232;2023-04-19T00:02:34;97739.19;;;19.47;45.21
62072;BME280;48031;48.542;13.232;2023-04-19T00:06:36;97725.72;;;19.46;45.01
62072;BME280;48031;48.542;13.232;2023-04-19T00:10:38;97729.97;;;19.38;45.12
62072;BME280;48031;48.542;13.232;2023-04-19T00:14:40;97723.00;;;19.41;45.22
62072;BME280;48031;48.542;13.232;2023-04-19T00:18:42;97719.91;;;19.29;45.20
62072;BME280;48031;48.542;13.232;2023-04-19T00:22:44;97725.84;;;19.36;44.91
62072;BME280;48031;48.542;13.232;2023-04-19T00:26:45;97720.69;;;19.16;45.83
62072;BME280;48031;48.542;13.232;2023-04-19T00:30:47;97719.03;;;19.33;45.19
62072;BME280;48031;48.542;13.232;2023-04-19T00:34:49;97718.53;;;19.13;45.36
62072;BME280;48031;48.542;13.232;2023-04-19T00:38:51;97713.91;;;19.27;44.72
62072;BME280;48031;48.542;13.232;2023-04-19T00:42:53;97709.53;;;19.07;45.85
62072;BME280;48031;48.542;13.232;2023-04-19T00:46:55;97704.47;;;19.14;45.58
62072;BME280;48031;48.542;13.232;2023-04-19T00:50:57;97703.91;;;18.98;45.35
62072;BME280;48031;48.542;13.232;2023-04-19T00:55:00;97695.66;;;18.98;45.33
62072;BME280;48031;48.542;13.232;2023-04-19T00:59:02;97686.06;;;18.77;45.53
62072;BME280;48031;48.542;13.232;2023-04-19T01:03:05;97685.69;;;18.84;45.90
62072;BME280;48031;48.542;13.232;2023-04-19T01:07:08;97686.19;;;18.67;45.53
62072;BME280;48031;48.542;13.232;2023-04-19T01:11:10;97684.59;;;18.66;45.19
62072;BME280;48031;48.542;13.232;2023-04-19T01:15:12;97676.78;;;18.54;45.88
62072;BME280;48031;48.542;13.232;2023-04-19T01:19:14;97677.09;;;18.48;45.53
62072;BME280;48031;48.542;13.232;2023-04-19T01:23:17;97668.88;;;18.48;45.65
62072;BME280;48031;48.542;13.232;2023-04-19T01:27:19;97657.34;;;18.46;45.33
62072;BME280;48031;48.542;13.232;2023-04-19T01:31:20;97650.41;;;18.29;45.53
62072;BME280;48031;48.542;13.232;2023-04-19T01:35:22;97643.06;;;18.25;45.46
62072;BME280;48031;48.542;13.232;2023-04-19T01:39:24;97650.41;;;18.29;45.09
62072;BME280;48031;48.542;13.232;2023-04-19T01:43:26;97646.41;;;18.22;45.45
62072;BME280;48031;48.542;13.232;2023-04-19T01:47:28;97649.88;;;18.09;45.12
62072;BME280;48031;48.542;13.232;2023-04-19T01:51:30;97645.69;;;17.93;45.76
62072;BME280;48031;48.542;13.232;2023-04-19T01:55:31;97639.56;;;17.77;45.27
62072;BME280;48031;48.542;13.232;2023-04-19T01:59:33;97648.78;;;17.62;46.01
62072;BME280;48031;48.542;13.232;2023-04-19T02:03:35;97643.03;;;17.59;45.12
62072;BME280;48031;48.542;13.232;2023-04-19T02:07:37;97649.25;;;17.40;46.13
62072;BME280;48031;48.542;13.232;2023-04-19T02:11:39;97639.31;;;17.44;46.46
62072;BME280;48031;48.542;13.232;2023-04-19T02:15:40;97637.88;;;17.23;46.33
62072;BME280;48031;48.542;13.232;2023-04-19T02:19:42;97639.03;;;18.17;45.06
62072;BME280;48031;48.542;13.232;2023-04-19T02:23:44;97636.09;;;18.33;44.99
62072;BME280;48031;48.542;13.232;2023-04-19T02:27:46;97635.28;;;18.32;44.74
62072;BME280;48031;48.542;13.232;2023-04-19T02:31:48;97623.09;;;18.38;45.00
62072;BME280;48031;48.542;13.232;2023-04-19T02:35:50;97621.09;;;18.44;44.71
62072;BME280;48031;48.542;13.232;2023-04-19T02:39:52;97623.69;;;18.54;44.31
62072;BME280;48031;48.542;13.232;2023-04-19T02:43:54;97626.44;;;18.54;44.86
62072;BME280;48031;48.542;13.232;2023-04-19T02:47:56;97620.72;;;18.69;44.16
62072;BME280;48031;48.542;13.232;2023-04-19T02:52:00;97615.22;;;18.50;44.45
62072;BME280;48031;48.542;13.232;2023-04-19T02:56:02;97609.69;;;18.55;44.38
62072;BME280;48031;48.542;13.232;2023-04-19T03:00:04;97616.34;;;18.87;44.15
62072;BME280;48031;48.542;13.232;2023-04-19T03:04:07;97605.19;;;18.22;44.73
62072;BME280;48031;48.542;13.232;2023-04-19T03:08:09;97604.22;;;18.50;44.59
62072;BME280;48031;48.542;13.232;2023-04-19T03:12:12;97606.31;;;18.77;44.26
62072;BME280;48031;48.542;13.232;2023-04-19T03:16:15;97591.88;;;18.85;44.09
62072;BME280;48031;48.542;13.232;2023-04-19T03:20:18;97594.84;;;18.89;43.78
62072;BME280;48031;48.542;13.232;2023-04-19T03:24:29;97589.84;;;18.91;44.54
62072;BME280;48031;48.542;13.232;2023-04-19T03:28:35;97589.38;;;18.14;45.26
62072;BME280;48031;48.542;13.232;2023-04-19T03:33:03;97573.03;;;18.22;45.00
62072;BME280;48031;48.542;13.232;2023-04-19T03:37:06;97569.53;;;17.98;45.42
62072;BME280;48031;48.542;13.232;2023-04-19T03:41:22;97566.38;;;18.80;44.22
62072;BME280;48031;48.542;13.232;2023-04-19T03:45:41;97572.88;;;18.14;44.55
62072;BME280;48031;48.542;13.232;2023-04-19T03:49:44;97563.66;;;17.86;45.65
62072;BME280;48031;48.542;13.232;2023-04-19T03:53:47;97563.84;;;17.47;46.38
62072;BME280;48031;48.542;13.232;2023-04-19T03:57:51;97556.59;;;17.80;45.62
62072;BME280;48031;48.542;13.232;2023-04-19T04:02:05;97552.59;;;18.28;45.56
62072;BME280;48031;48.542;13.232;2023-04-19T04:06:07;97561.53;;;18.20;44.72
62072;BME280;48031;48.542;13.232;2023-04-19T04:10:09;97564.13;;;18.31;44.62
62072;BME280;48031;48.542;13.232;2023-04-19T04:14:16;97558.53;;;18.36;44.38
62072;BME280;48031;48.542;13.232;2023-04-19T04:18:20;97562.47;;;18.29;44.91
62072;BME280;48031;48.542;13.232;2023-04-19T04:22:23;97551.66;;;18.38;44.67
62072;BME280;48031;48.542;13.232;2023-04-19T04:26:25;97554.91;;;18.40;44.82
62072;BME280;48031;48.542;13.232;2023-04-19T04:30:44;97561.13;;;18.46;44.67
62072;BME280;48031;48.542;13.232;2023-04-19T04:34:47;97567.81;;;16.78;47.59
62072;BME280;48031;48.542;13.232;2023-04-19T04:38:59;97567.13;;;16.62;49.57
62072;BME280;48031;48.542;13.232;2023-04-19T04:43:04;97563.00;;;17.46;47.74
62072;BME280;48031;48.542;13.232;2023-04-19T04:47:07;97559.38;;;17.03;48.56
62072;BME280;48031;48.542;13.232;2023-04-19T04:51:15;97564.41;;;17.20;48.36
62072;BME280;48031;48.542;13.232;2023-04-19T04:55:21;97552.16;;;18.40;45.02
62072;BME280;48031;48.542;13.232;2023-04-19T04:59:23;97561.56;;;17.30;46.93
62072;BME280;48031;48.542;13.232;2023-04-19T05:03:25;97553.09;;;17.74;45.78
62072;BME280;48031;48.542;13.232;2023-04-19T05:07:33;97558.72;;;17.12;47.43
62072;BME280;48031;48.542;13.232;2023-04-19T05:11:36;97548.06;;;17.34;46.56
62072;BME280;48031;48.542;13.232;2023-04-19T05:15:39;97552.50;;;17.30;46.59
62072;BME280;48031;48.542;13.232;2023-04-19T05:19:42;97540.66;;;16.82;47.72
62072;BME280;48031;48.542;13.232;2023-04-19T05:23:45;97548.22;;;16.61;48.70
62072;BME280;48031;48.542;13.232;2023-04-19T05:27:47;97544.19;;;16.87;48.04
62072;BME280;48031;48.542;13.232;2023-04-19T05:31:49;97549.25;;;15.18;52.70
62072;BME280;48031;48.542;13.232;2023-04-19T05:36:03;97543.88;;;16.89;48.18
62072;BME280;48031;48.542;13.232;2023-04-19T05:40:06;97542.06;;;16.01;50.33
62072;BME280;48031;48.542;13.232;2023-04-19T05:44:10;97538.91;;;15.79;51.65
62072;BME280;48031;48.542;13.232;2023-04-19T05:48:12;97534.25;;;17.86;46.32
62072;BME280;48031;48.542;13.232;2023-04-19T05:52:16;97523.13;;;18.15;45.85
62072;BME280;48031;48.542;13.232;2023-04-19T05:56:28;97518.50;;;18.29;45.09
62072;BME280;48031;48.542;13.232;2023-04-19T06:00:30;97517.09;;;17.95;46.45
62072;BME280;48031;48.542;13.232;2023-04-19T06:04:41;97518.38;;;18.21;45.50
62072;BME280;48031;48.542;13.232;2023-04-19T06:08:44;97524.16;;;18.57;44.85
62072;BME280;48031;48.542;13.232;2023-04-19T06:12:45;97509.34;;;18.85;43.99
62072;BME280;48031;48.542;13.232;2023-04-19T06:16:47;97513.09;;;18.43;44.72
62072;BME280;48031;48.542;13.232;2023-04-19T06:20:51;97511.09;;;18.81;45.24
62072;BME280;48031;48.542;13.232;2023-04-19T06:24:53;97506.53;;;18.39;45.20
62072;BME280;48031;48.542;13.232;2023-04-19T06:28:55;97505.81;;;18.98;44.39
62072;BME280;48031;48.542;13.232;2023-04-19T06:32:57;97500.53;;;19.16;43.84
62072;BME280;48031;48.542;13.232;2023-04-19T06:36:59;97497.16;;;19.19;44.37
62072;BME280;48031;48.542;13.232;2023-04-19T06:41:01;97492.41;;;19.10;44.34
62072;BME280;48031;48.542;13.232;2023-04-19T06:45:03;97503.50;;;19.33;43.57
62072;BME280;48031;48.542;13.232;2023-04-19T06:49:05;97485.06;;;19.47;43.63
62072;BME280;48031;48.542;13.232;2023-04-19T06:53:07;97486.19;;;19.46;43.88
62072;BME280;48031;48.542;13.232;2023-04-19T06:57:09;97490.00;;;19.86;42.81
62072;BME280;48031;48.542;13.232;2023-04-19T07:01:11;97482.13;;;19.93;42.93
62072;BME280;48031;48.542;13.232;2023-04-19T07:05:13;97482.09;;;19.43;43.46
62072;BME280;48031;48.542;13.232;2023-04-19T07:09:15;97491.09;;;19.49;43.28
62072;BME280;48031;48.542;13.232;2023-04-19T07:13:17;97473.53;;;19.45;43.85
62072;BME280;48031;48.542;13.232;2023-04-19T07:17:19;97470.06;;;19.26;44.86
62072;BME280;48031;48.542;13.232;2023-04-19T07:21:21;97479.81;;;19.86;43.27
62072;BME280;48031;48.542;13.232;2023-04-19T07:25:25;97473.19;;;19.74;43.86
62072;BME280;48031;48.542;13.232;2023-04-19T07:29:27;97477.59;;;20.11;42.88
62072;BME280;48031;48.542;13.232;2023-04-19T07:33:29;97480.25;;;20.02;43.49
62072;BME280;48031;48.542;13.232;2023-04-19T07:37:31;97471.72;;;19.90;43.78
62072;BME280;48031;48.542;13.232;2023-04-19T07:41:33;97462.81;;;20.29;42.96
62072;BME280;48031;48.542;13.232;2023-04-19T07:45:36;97464.78;;;20.51;42.04
62072;BME280;48031;48.542;13.232;2023-04-19T07:49:39;97467.56;;;20.15;41.41
62072;BME280;48031;48.542;13.232;2023-04-19T07:53:41;97463.41;;;20.40;41.99
62072;BME280;48031;48.542;13.232;2023-04-19T07:57:43;97471.00;;;19.98;41.13
62072;BME280;48031;48.542;13.232;2023-04-19T08:01:48;97469.66;;;20.54;41.60
62072;BME280;48031;48.542;13.232;2023-04-19T08:05:50;97464.94;;;20.10;42.84
62072;BME280;48031;48.542;13.232;2023-04-19T08:09:52;97471.84;;;20.65;42.05
62072;BME280;48031;48.542;13.232;2023-04-19T08:13:54;97466.66;;;19.83;43.77
62072;BME280;48031;48.542;13.232;2023-04-19T08:18:12;97463.69;;;19.80;44.29
62072;BME280;48031;48.542;13.232;2023-04-19T08:22:14;97466.03;;;20.22;43.34
62072;BME280;48031;48.542;13.232;2023-04-19T08:26:17;97463.56;;;19.99;44.20
62072;BME280;48031;48.542;13.232;2023-04-19T08:30:19;97465.97;;;19.78;44.47
62072;BME280;48031;48.542;13.232;2023-04-19T08:34:21;97461.81;;;19.53;45.04
62072;BME280;48031;48.542;13.232;2023-04-19T08:38:23;97448.88;;;19.89;44.51
62072;BME280;48031;48.542;13.232;2023-04-19T08:42:25;97460.03;;;20.29;44.16
62072;BME280;48031;48.542;13.232;2023-04-19T08:46:37;97466.13;;;20.17;44.30
62072;BME280;48031;48.542;13.232;2023-04-19T08:50:40;97454.56;;;20.51;44.20
62072;BME280;48031;48.542;13.232;2023-04-19T08:55:03;97455.75;;;20.37;44.42
62072;BME280;48031;48.542;13.232;2023-04-19T08:59:06;97456.22;;;19.94;44.41
62072;BME280;48031;48.542;13.232;2023-04-19T09:03:19;97448.16;;;20.20;43.94
62072;BME280;48031;48.542;13.232;2023-04-19T09:07:22;97449.31;;;20.41;45.09
62072;BME280;48031;48.542;13.232;2023-04-19T09:11:36;97434.66;;;21.25;43.32
62072;BME280;48031;48.542;13.232;2023-04-19T09:15:41;97440.28;;;20.49;43.79
62072;BME280;48031;48.542;13.232;2023-04-19T09:19:46;97436.47;;;20.67;44.09
62072;BME280;48031;48.542;13.232;2023-04-19T09:23:48;97434.94;;;20.53;43.92
62072;BME280;48031;48.542;13.232;2023-04-19T09:27:50;97435.16;;;19.62;45.89
62072;BME280;48031;48.542;13.232;2023-04-19T09:31:56;97432.69;;;21.17;43.46
62072;BME280;48031;48.542;13.232;2023-04-19T09:36:00;97425.75;;;20.35;45.54
62072;BME280;48031;48.542;13.232;2023-04-19T09:40:21;97413.47;;;21.11;43.70
62072;BME280;48031;48.542;13.232;2023-04-19T09:44:23;97422.19;;;19.76;45.60
62072;BME280;48031;48.542;13.232;2023-04-19T09:48:27;97423.28;;;20.11;45.08
62072;BME280;48031;48.542;13.232;2023-04-19T09:52:31;97407.63;;;20.43;45.41
62072;BME280;48031;48.542;13.232;2023-04-19T09:56:34;97416.72;;;20.43;44.61
62072;BME280;48031;48.542;13.232;2023-04-19T10:00:38;97417.09;;;20.81;44.27
62072;BME280;48031;48.542;13.232;2023-04-19T10:04:49;97420.56;;;20.33;45.01
62072;BME280;48031;48.542;13.232;2023-04-19T10:09:00;97407.16;;;20.71;44.59
62072;BME280;48031;48.542;13.232;2023-04-19T10:13:03;97424.53;;;18.14;50.38
62072;BME280;48031;48.542;13.232;2023-04-19T10:17:21;97406.88;;;18.34;49.90
62072;BME280;48031;48.542;13.232;2023-04-19T10:21:26;97401.69;;;20.05;47.76
62072;BME280;48031;48.542;13.232;2023-04-19T10:25:29;97398.38;;;20.39;45.89
62072;BME280;48031;48.542;13.232;2023-04-19T10:29:57;97399.06;;;20.22;45.95
62072;BME280;48031;48.542;13.232;2023-04-19T10:33:59;97396.75;;;19.30;49.20
62072;BME280;48031;48.542;13.232;2023-04-19T10:38:12;97384.78;;;20.82;44.54
62072;BME280;48031;48.542;13.232;2023-04-19T10:42:14;97399.75;;;19.69;46.14
62072;BME280;48031;48.542;13.232;2023-04-19T10:46:34;97393.63;;;19.09;47.95
62072;BME280;48031;48.542;13.232;2023-04-19T10:55:15;97380.34;;;19.52;47.08
62072;BME280;48031;48.542;13.232;2023-04-19T10:59:19;97385.22;;;19.55;43.35
62072;BME280;48031;48.542;13.232;2023-04-19T11:07:44;97375.91;;;19.65;43.24
62072;BME280;48031;48.542;13.232;2023-04-19T11:11:46;97365.72;;;19.65;42.64
62072;BME280;48031;48.542;13.232;2023-04-19T11:15:48;97374.50;;;20.65;41.38
62072;BME280;48031;48.542;13.232;2023-04-19T11:20:05;97369.44;;;20.98;41.00
62072;BME280;48031;48.542;13.232;2023-04-19T11:24:09;97364.03;;;20.84;40.40
62072;BME280;48031;48.542;13.232;2023-04-19T11:28:14;97355.47;;;21.03;40.88
62072;BME280;48031;48.542;13.232;2023-04-19T11:32:20;97360.41;;;21.14;40.76
62072;BME280;48031;48.542;13.232;2023-04-19T11:36:22;97350.72;;;20.47;41.38
62072;BME280;48031;48.542;13.232;2023-04-19T11:40:24;97360.47;;;20.44;42.28
62072;BME280;48031;48.542;13.232;2023-04-19T11:44:26;97356.06;;;20.43;41.82
62072;BME280;48031;48.542;13.232;2023-04-19T11:48:28;97362.06;;;20.45;42.12
62072;BME280;48031;48.542;13.232;2023-04-19T11:52:34;97360.47;;;20.53;42.08
62072;BME280;48031;48.542;13.232;2023-04-19T11:56:36;97350.44;;;20.04;42.66
62072;BME280;48031;48.542;13.232;2023-04-19T12:00:37;97345.34;;;20.42;41.89
62072;BME280;48031;48.542;13.232;2023-04-19T12:04:39;97350.56;;;20.43;42.71
62072;BME280;48031;48.542;13.232;2023-04-19T12:08:44;97349.75;;;19.98;44.27
62072;BME280;48031;48.542;13.232;2023-04-19T12:12:47;97349.81;;;19.62;43.63
62072;BME280;48031;48.542;13.232;2023-04-19T12:17:06;97346.22;;;20.99;41.13
62072;BME280;48031;48.542;13.232;2023-04-19T12:21:10;97336.91;;;20.16;42.62
62072;BME280;48031;48.542;13.232;2023-04-19T12:25:13;97342.22;;;20.34;41.45
62072;BME280;48031;48.542;13.232;2023-04-19T12:29:15;97347.63;;;19.37;42.79
62072;BME280;48031;48.542;13.232;2023-04-19T12:33:17;97346.44;;;20.32;41.82
62072;BME280;48031;48.542;13.232;2023-04-19T12:37:19;97334.03;;;20.52;40.68
62072;BME280;48031;48.542;13.232;2023-04-19T12:41:20;97337.38;;;20.80;40.04
62072;BME280;48031;48.542;13.232;2023-04-19T12:45:23;97331.69;;;19.83;41.54
62072;BME280;48031;48.542;13.232;2023-04-19T12:49:24;97325.09;;;20.24;40.98
62072;BME280;48031;48.542;13.232;2023-04-19T12:53:26;97324.78;;;20.25;40.95
62072;BME280;48031;48.542;13.232;2023-04-19T12:57:28;97327.00;;;20.37;40.93
62072;BME280;48031;48.542;13.232;2023-04-19T13:01:31;97333.28;;;20.68;40.33
62072;BME280;48031;48.542;13.232;2023-04-19T13:05:33;97344.75;;;19.56;42.80
62072;BME280;48031;48.542;13.232;2023-04-19T13:09:35;97342.53;;;20.64;40.22
62072;BME280;48031;48.542;13.232;2023-04-19T13:13:36;97330.75;;;20.81;40.11
62072;BME280;48031;48.542;13.232;2023-04-19T13:17:38;97337.78;;;19.58;43.06
62072;BME280;48031;48.542;13.232;2023-04-19T13:21:40;97339.59;;;19.85;42.88
62072;BME280;48031;48.542;13.232;2023-04-19T13:25:42;97343.44;;;19.75;42.64
62072;BME280;48031;48.542;13.232;2023-04-19T13:29:44;97342.19;;;18.96;44.20
62072;BME280;48031;48.542;13.232;2023-04-19T13:33:46;97349.50;;;19.00;42.71
62072;BME280;48031;48.542;13.232;2023-04-19T13:37:48;97353.00;;;18.65;42.46
62072;BME280;48031;48.542;13.232;2023-04-19T13:41:50;97348.41;;;18.74;42.54
62072;BME280;48031;48.542;13.232;2023-04-19T13:45:51;97357.09;;;17.89;43.72
62072;BME280;48031;48.542;13.232;2023-04-19T13:49:53;97343.69;;;18.47;40.94
62072;BME280;48031;48.542;13.232;2023-04-19T13:53:55;97351.50;;;18.40;41.43
62072;BME280;48031;48.542;13.232;2023-04-19T13:57:56;97344.75;;;19.42;39.95
62072;BME280;48031;48.542;13.232;2023-04-19T14:01:58;97340.66;;;19.53;40.67
62072;BME280;48031;48.542;13.232;2023-04-19T14:06:00;97334.56;;;19.42;38.99
62072;BME280;48031;48.542;13.232;2023-04-19T14:10:02;97327.97;;;19.66;39.53
62072;BME280;48031;48.542;13.232;2023-04-19T14:14:04;97336.28;;;18.75;40.16
62072;BME280;48031;48.542;13.232;2023-04-19T14:18:06;97332.47;;;19.26;37.89
62072;BME280;48031;48.542;13.232;2023-04-19T14:22:07;97335.22;;;19.26;38.75
62072;BME280;48031;48.542;13.232;2023-04-19T14:26:09;97333.72;;;19.42;37.92
62072;BME280;48031;48.542;13.232;2023-04-19T14:30:11;97331.28;;;19.54;38.29
62072;BME280;48031;48.542;13.232;2023-04-19T14:34:13;97322.63;;;18.97;37.55
62072;BME280;48031;48.542;13.232;2023-04-19T14:38:15;97321.50;;;18.85;38.10
62072;BME280;48031;48.542;13.232;2023-04-19T14:42:17;97308.00;;;19.24;37.70
62072;BME280;48031;48.542;13.232;2023-04-19T14:46:22;97296.53;;;19.44;37.93
62072;BME280;48031;48.542;13.232;2023-04-19T14:50:24;97289.84;;;19.59;38.53
62072;BME280;48031;48.542;13.232;2023-04-19T14:54:26;97285.94;;;19.02;40.11
62072;BME280;48031;48.542;13.232;2023-04-19T14:58:28;97288.78;;;19.10;39.79
62072;BME280;48031;48.542;13.232;2023-04-19T15:02:30;97301.66;;;18.74;41.87
62072;BME280;48031;48.542;13.232;2023-04-19T15:06:32;97305.34;;;19.33;37.46
62072;BME280;48031;48.542;13.232;2023-04-19T15:10:34;97307.63;;;19.53;37.64
62072;BME280;48031;48.542;13.232;2023-04-19T15:14:38;97308.88;;;19.91;39.01
62072;BME280;48031;48.542;13.232;2023-04-19T15:18:41;97309.31;;;19.85;38.21
62072;BME280;48031;48.542;13.232;2023-04-19T15:22:43;97312.94;;;19.94;38.01
62072;BME280;48031;48.542;13.232;2023-04-19T15:26:44;97317.22;;;20.00;38.50
62072;BME280;48031;48.542;13.232;2023-04-19T15:30:57;97317.53;;;20.60;37.77
62072;BME280;48031;48.542;13.232;2023-04-19T15:35:00;97314.94;;;20.02;37.65
62072;BME280;48031;48.542;13.232;2023-04-19T15:39:01;97318.63;;;19.98;37.35
62072;BME280;48031;48.542;13.232;2023-04-19T15:43:03;97325.84;;;19.63;37.74
62072;BME280;48031;48.542;13.232;2023-04-19T15:47:05;97308.88;;;19.47;38.37
62072;BME280;48031;48.542;13.232;2023-04-19T15:51:07;97304.69;;;19.36;38.92
62072;BME280;48031;48.542;13.232;2023-04-19T15:55:09;97303.97;;;19.08;38.67
62072;BME280;48031;48.542;13.232;2023-04-19T15:59:10;97305.53;;;19.23;37.88
62072;BME280;48031;48.542;13.232;2023-04-19T16:03:12;97300.94;;;19.32;37.07
62072;BME280;48031;48.542;13.232;2023-04-19T16:07:14;97312.84;;;19.41;37.25
62072;BME280;48031;48.542;13.232;2023-04-19T16:11:16;97320.09;;;19.37;38.37
62072;BME280;48031;48.542;13.232;2023-04-19T16:15:18;97318.28;;;19.32;39.03
62072;BME280;48031;48.542;13.232;2023-04-19T16:19:20;97322.34;;;18.85;38.67
62072;BME280;48031;48.542;13.232;2023-04-19T16:23:25;97319.38;;;18.82;38.14
62072;BME280;48031;48.542;13.232;2023-04-19T16:27:27;97324.56;;;19.10;39.06
62072;BME280;48031;48.542;13.232;2023-04-19T16:31:29;97313.75;;;19.00;38.50
62072;BME280;48031;48.542;13.232;2023-04-19T16:35:31;97316.13;;;18.80;38.79
62072;BME280;48031;48.542;13.232;2023-04-19T16:39:33;97315.13;;;18.76;38.92
62072;BME280;48031;48.542;13.232;2023-04-19T16:43:34;97337.72;;;18.73;38.92
62072;BME280;48031;48.542;13.232;2023-04-19T16:47:37;97337.81;;;18.67;38.81
62072;BME280;48031;48.542;13.232;2023-04-19T16:51:39;97341.19;;;18.64;37.94
62072;BME280;48031;48.542;13.232;2023-04-19T16:55:41;97331.97;;;18.42;39.21
62072;BME280;48031;48.542;13.232;2023-04-19T16:59:43;97333.03;;;18.59;38.61
62072;BME280;48031;48.542;13.232;2023-04-19T17:03:44;97329.16;;;18.74;38.65
62072;BME280;48031;48.542;13.232;2023-04-19T17:07:47;97341.72;;;18.20;40.26
62072;BME280;48031;48.542;13.232;2023-04-19T17:11:49;97342.69;;;18.57;38.97
62072;BME280;48031;48.542;13.232;2023-04-19T17:15:51;97351.81;;;18.25;39.83
62072;BME280;48031;48.542;13.232;2023-04-19T17:19:53;97357.00;;;18.26;39.04
62072;BME280;48031;48.542;13.232;2023-04-19T17:23:57;97367.94;;;17.99;39.53
62072;BME280;48031;48.542;13.232;2023-04-19T17:27:59;97366.25;;;17.47;41.15
62072;BME280;48031;48.542;13.232;2023-04-19T17:32:00;97349.63;;;18.08;40.23
62072;BME280;48031;48.542;13.232;2023-04-19T17:36:03;97340.03;;;18.38;40.24
62072;BME280;48031;48.542;13.232;2023-04-19T17:40:06;97355.84;;;18.14;40.65
62072;BME280;48031;48.542;13.232;2023-04-19T17:44:08;97350.84;;;18.02;40.67
62072;BME280;48031;48.542;13.232;2023-04-19T17:48:09;97357.97;;;18.03;40.71
62072;BME280;48031;48.542;13.232;2023-04-19T17:52:12;97359.50;;;18.09;40.17
62072;BME280;48031;48.542;13.232;2023-04-19T17:56:14;97357.97;;;18.03;40.16
62072;BME280;48031;48.542;13.232;2023-04-19T18:00:16;97366.88;;;17.95;40.12
62072;BME280;48031;48.542;13.232;2023-04-19T18:04:17;97377.53;;;17.83;40.86
62072;BME280;48031;48.542;13.232;2023-04-19T18:08:20;97375.44;;;17.94;39.76
62072;BME280;48031;48.542;13.232;2023-04-19T18:12:22;97356.91;;;17.67;40.71
62072;BME280;48031;48.542;13.232;2023-04-19T18:16:24;97358.88;;;17.24;42.39
62072;BME280;48031;48.542;13.232;2023-04-19T18:20:26;97389.41;;;16.98;41.57
62072;BME280;48031;48.542;13.232;2023-04-19T18:24:28;97396.41;;;17.28;42.29
62072;BME280;48031;48.542;13.232;2023-04-19T18:28:29;97394.50;;;17.48;42.21
62072;BME280;48031;48.542;13.232;2023-04-19T18:32:32;97385.53;;;17.42;42.03
62072;BME280;48031;48.542;13.232;2023-04-19T18:36:36;97364.53;;;17.32;41.93
62072;BME280;48031;48.542;13.232;2023-04-19T18:40:37;97366.94;;;16.96;43.25
62072;BME280;48031;48.542;13.232;2023-04-19T18:44:39;97369.22;;;17.32;41.64
62072;BME280;48031;48.542;13.232;2023-04-19T18:48:53;97387.38;;;16.85;43.10
62072;BME280;48031;48.542;13.232;2023-04-19T18:52:55;97394.59;;;17.00;42.13
62072;BME280;48031;48.542;13.232;2023-04-19T18:56:57;97408.28;;;17.00;42.72
62072;BME280;48031;48.542;13.232;2023-04-19T19:01:19;97410.00;;;16.96;42.51
62072;BME280;48031;48.542;13.232;2023-04-19T19:05:21;97407.56;;;16.71;43.29
62072;BME280;48031;48.542;13.232;2023-04-19T19:09:23;97409.31;;;16.85;42.20
62072;BME280;48031;48.542;13.232;2023-04-19T19:13:26;97406.25;;;17.11;41.80
62072;BME280;48031;48.542;13.232;2023-04-19T19:17:27;97409.25;;;16.90;42.30
62072;BME280;48031;48.542;13.232;2023-04-19T19:21:29;97406.84;;;17.08;41.24
62072;BME280;48031;48.542;13.232;2023-04-19T19:25:31;97403.81;;;16.85;42.20
62072;BME280;48031;48.542;13.232;2023-04-19T19:29:33;97386.03;;;16.83;42.40
62072;BME280;48031;48.542;13.232;2023-04-19T19:33:37;97394.44;;;16.91;42.12
62072;BME280;48031;48.542;13.232;2023-04-19T19:37:41;97418.00;;;16.69;43.45
62072;BME280;48031;48.542;13.232;2023-04-19T19:41:42;97414.34;;;16.49;43.79
62072;BME280;48031;48.542;13.232;2023-04-19T19:45:48;97409.38;;;16.51;43.89
62072;BME280;48031;48.542;13.232;2023-04-19T19:49:50;97409.72;;;16.74;42.66
62072;BME280;48031;48.542;13.232;2023-04-19T19:54:11;97416.16;;;16.30;44.08
62072;BME280;48031;48.542;13.232;2023-04-19T19:58:13;97410.72;;;16.54;43.08
62072;BME280;48031;48.542;13.232;2023-04-19T20:02:36;97421.63;;;16.88;42.88
62072;BME280;48031;48.542;13.232;2023-04-19T20:06:39;97408.94;;;16.39;43.41
62072;BME280;48031;48.542;13.232;2023-04-19T20:10:44;97419.09;;;16.68;42.61
62072;BME280;48031;48.542;13.232;2023-04-19T20:14:47;97409.66;;;16.79;43.39
62072;BME280;48031;48.542;13.232;2023-04-19T20:18:49;97408.31;;;16.47;44.06
62072;BME280;48031;48.542;13.232;2023-04-19T20:22:50;97412.56;;;16.35;43.74
62072;BME280;48031;48.542;13.232;2023-04-19T20:26:52;97409.88;;;16.30;44.33
62072;BME280;48031;48.542;13.232;2023-04-19T20:30:54;97405.72;;;16.03;44.78
62072;BME280;48031;48.542;13.232;2023-04-19T20:34:56;97418.28;;;16.38;44.05
62072;BME280;48031;48.542;13.232;2023-04-19T20:38:58;97415.88;;;16.32;43.41
62072;BME280;48031;48.542;13.232;2023-04-19T20:43:02;97411.09;;;16.13;44.46
62072;BME280;48031;48.542;13.232;2023-04-19T20:47:04;97412.03;;;16.33;43.25
62072;BME280;48031;48.542;13.232;2023-04-19T20:51:06;97403.22;;;16.07;44.55
62072;BME280;48031;48.542;13.232;2023-04-19T20:55:08;97407.59;;;16.37;43.44
62072;BME280;48031;48.542;13.232;2023-04-19T20:59:10;97408.81;;;16.26;43.76
62072;BME280;48031;48.542;13.232;2023-04-19T21:03:12;97400.81;;;16.29;43.99
62072;BME280;48031;48.542;13.232;2023-04-19T21:07:14;97399.00;;;16.19;43.93
62072;BME280;48031;48.542;13.232;2023-04-19T21:11:16;97387.47;;;16.22;43.94
62072;BME280;48031;48.542;13.232;2023-04-19T21:15:18;97398.13;;;16.24;43.76
62072;BME280;48031;48.542;13.232;2023-04-19T21:19:20;97401.88;;;15.70;45.23
62072;BME280;48031;48.542;13.232;2023-04-19T21:23:21;97408.91;;;15.82;44.70